createdAt,value
2023-03-11T00:00:46.991Z,99.99
2023-03-11T00:01:44.738Z,99.99
2023-03-11T00:02:44.956Z,99.99
2023-03-11T00:03:45.115Z,99.99
2023-03-11T00:04:45.266Z,99.99
2023-03-11T00:05:45.444Z,99.99
2023-03-11T00:06:45.672Z,99.99
2023-03-11T00:07:45.842Z,99.99
2023-03-11T00:08:46.006Z,99.99
2023-03-11T00:09:46.188Z,99.99
2023-03-11T00:10:46.371Z,99.99
2023-03-11T00:11:46.543Z,99.99
2023-03-11T00:12:46.717Z,99.99
2023-03-11T00:13:46.894Z,99.99
2023-03-11T00:14:47.094Z,99.99
2023-03-11T00:15:47.227Z,99.99
2023-03-11T00:16:47.471Z,99.99
2023-03-11T00:17:47.642Z,99.99
2023-03-11T00:18:47.807Z,99.99
2023-03-11T00:19:47.980Z,99.99
2023-03-11T00:20:48.150Z,99.99
2023-03-11T00:21:48.329Z,99.99
2023-03-11T00:22:48.520Z,99.99
2023-03-11T00:23:48.680Z,99.99
2023-03-11T00:24:48.878Z,99.99
2023-03-11T00:25:49.038Z,99.99
2023-03-11T00:26:49.220Z,99.99
2023-03-11T00:27:49.406Z,99.99
2023-03-11T00:28:49.577Z,99.99
2023-03-11T00:29:49.755Z,99.99
2023-03-11T00:30:50.034Z,99.99
2023-03-11T00:31:50.105Z,99.99
2023-03-11T00:32:50.461Z,99.99
2023-03-11T00:33:50.443Z,99.99
2023-03-11T00:34:50.631Z,99.99
2023-03-11T00:35:50.859Z,99.99
2023-03-11T00:36:51.061Z,99.99
2023-03-11T00:37:51.268Z,99.99
2023-03-11T00:38:51.590Z,99.99
2023-03-11T00:39:51.697Z,99.99
2023-03-11T00:40:51.889Z,99.99
2023-03-11T00:41:52.080Z,99.99
2023-03-11T00:42:52.281Z,99.99
2023-03-11T00:43:52.464Z,99.99
2023-03-11T00:44:52.666Z,99.99
2023-03-11T00:45:52.961Z,99.99
2023-03-11T00:46:53.056Z,99.99
2023-03-11T00:47:53.257Z,99.99
2023-03-11T00:48:53.447Z,99.99
2023-03-11T00:49:53.629Z,99.99
2023-03-11T00:50:53.844Z,99.99
2023-03-11T00:51:54.036Z,99.99
2023-03-11T00:52:54.246Z,99.99
2023-03-11T00:53:54.431Z,99.99
2023-03-11T00:54:54.633Z,99.99
2023-03-11T00:55:54.819Z,99.99
2023-03-11T00:56:55.026Z,99.99
2023-03-11T00:57:55.243Z,99.99
2023-03-11T00:58:55.450Z,99.99
2023-03-11T00:59:55.651Z,99.99
2023-03-11T01:00:55.922Z,99.99
2023-03-11T01:01:56.033Z,99.99
2023-03-11T01:02:56.249Z,99.99
2023-03-11T01:03:56.446Z,99.99
2023-03-11T01:04:56.760Z,99.99
2023-03-11T01:05:56.848Z,99.99
2023-03-11T01:06:57.073Z,99.99
2023-03-11T01:07:57.301Z,99.99
2023-03-11T01:08:57.574Z,99.99
2023-03-11T01:09:57.626Z,99.99
2023-03-11T01:10:57.845Z,99.99
2023-03-11T01:11:58.033Z,99.99
2023-03-11T01:12:58.260Z,99.99
2023-03-11T01:13:58.441Z,99.99
2023-03-11T01:14:58.635Z,99.99
2023-03-11T01:15:58.889Z,99.99
2023-03-11T01:16:59.118Z,99.99
2023-03-11T01:17:59.349Z,99.99
2023-03-11T01:18:59.549Z,99.99
2023-03-11T01:19:59.734Z,99.99
2023-03-11T01:20:59.944Z,99.99
2023-03-11T01:22:00.142Z,99.99
2023-03-11T01:23:00.375Z,99.99
2023-03-11T01:24:00.592Z,99.99
2023-03-11T01:25:00.790Z,99.99
2023-03-11T01:26:00.988Z,99.99
2023-03-11T01:27:01.212Z,99.99
2023-03-11T01:28:01.475Z,99.99
2023-03-11T01:29:01.551Z,99.99
2023-03-11T01:30:01.752Z,99.99
2023-03-11T01:31:02.008Z,99.99
2023-03-11T01:32:02.078Z,99.99
2023-03-11T01:33:02.312Z,99.99
2023-03-11T01:34:02.521Z,99.99
2023-03-11T01:35:02.700Z,99.99
2023-03-11T01:36:02.905Z,99.99
2023-03-11T01:37:03.109Z,99.99
2023-03-11T01:38:03.330Z,99.99
2023-03-11T01:39:03.553Z,99.99
2023-03-11T01:40:03.738Z,99.99
2023-03-11T01:41:03.949Z,99.99
2023-03-11T01:42:04.124Z,99.99
2023-03-11T01:43:04.340Z,99.99
2023-03-11T01:44:04.543Z,99.99
2023-03-11T01:45:04.767Z,99.99
2023-03-11T01:46:05.033Z,99.99
2023-03-11T01:47:05.114Z,99.99
2023-03-11T01:48:05.323Z,99.99
2023-03-11T01:49:05.555Z,99.99
2023-03-11T01:50:05.748Z,99.99
2023-03-11T01:51:05.959Z,99.99
2023-03-11T01:52:06.157Z,99.99
2023-03-11T01:53:06.366Z,99.99
2023-03-11T01:54:06.555Z,99.99
2023-03-11T01:55:06.756Z,99.99
2023-03-11T01:56:06.958Z,99.99
2023-03-11T01:57:07.165Z,99.99
2023-03-11T01:58:07.375Z,99.99
2023-03-11T01:59:07.605Z,99.99
2023-03-11T02:00:07.825Z,99.99
2023-03-11T02:01:08.048Z,99.99
2023-03-11T02:02:08.283Z,99.99
2023-03-11T02:03:08.548Z,99.99
2023-03-11T02:04:08.662Z,99.99
2023-03-11T02:05:08.877Z,99.99
2023-03-11T02:06:09.079Z,99.99
2023-03-11T02:07:09.281Z,99.99
2023-03-11T02:08:09.493Z,99.99
2023-03-11T02:09:09.712Z,99.99
2023-03-11T02:10:09.901Z,99.99
2023-03-11T02:11:10.096Z,99.99
2023-03-11T02:12:10.385Z,99.99
2023-03-11T02:13:10.587Z,99.99
2023-03-11T02:14:10.774Z,99.99
2023-03-11T02:15:10.985Z,99.99
2023-03-11T02:16:11.183Z,99.99
2023-03-11T02:17:11.384Z,99.99
2023-03-11T02:18:11.600Z,99.99
2023-03-11T02:19:11.792Z,99.99
2023-03-11T02:20:11.989Z,99.99
2023-03-11T02:21:12.217Z,99.99
2023-03-11T02:22:12.407Z,99.99
2023-03-11T02:23:12.639Z,99.99
2023-03-11T02:24:12.774Z,99.99
2023-03-11T02:25:12.966Z,99.99
2023-03-11T02:26:13.208Z,99.99
2023-03-11T02:27:13.412Z,99.99
2023-03-11T02:28:13.625Z,99.99
2023-03-11T02:29:13.832Z,99.99
2023-03-11T02:30:14.019Z,99.99
2023-03-11T02:31:14.267Z,99.99
2023-03-11T02:32:14.407Z,99.99
2023-03-11T02:33:14.669Z,99.99
2023-03-11T02:34:14.865Z,99.99
2023-03-11T02:35:15.039Z,99.99
2023-03-11T02:36:15.293Z,99.99
2023-03-11T02:37:15.494Z,99.99
2023-03-11T02:38:15.705Z,99.99
2023-03-11T02:39:15.909Z,99.99
2023-03-11T02:40:16.109Z,99.99
2023-03-11T02:41:16.304Z,99.99
2023-03-11T02:42:16.501Z,99.99
2023-03-11T02:43:16.706Z,99.99
2023-03-11T02:44:16.922Z,99.99
2023-03-11T02:45:17.140Z,99.99
2023-03-11T02:46:17.443Z,99.99
2023-03-11T02:47:17.552Z,99.99
2023-03-11T02:48:17.758Z,99.99
2023-03-11T02:49:17.970Z,99.99
2023-03-11T02:50:18.176Z,99.99
2023-03-11T02:51:18.413Z,99.99
2023-03-11T02:52:18.612Z,99.99
2023-03-11T02:53:18.822Z,99.99
2023-03-11T02:54:19.026Z,99.99
2023-03-11T02:55:19.246Z,99.99
2023-03-11T02:56:19.458Z,99.99
2023-03-11T02:57:19.668Z,99.99
2023-03-11T02:58:19.884Z,99.99
2023-03-11T02:59:20.094Z,99.99
2023-03-11T03:00:20.288Z,99.99
2023-03-11T03:01:20.649Z,99.99
2023-03-11T03:02:20.770Z,99.99
2023-03-11T03:03:20.985Z,99.99
2023-03-11T03:04:21.247Z,99.99
2023-03-11T03:05:21.439Z,99.99
2023-03-11T03:06:21.643Z,99.99
2023-03-11T03:07:21.847Z,99.99
2023-03-11T03:08:22.049Z,99.99
2023-03-11T03:09:22.253Z,99.99
2023-03-11T03:10:22.453Z,99.99
2023-03-11T03:11:22.669Z,99.99
2023-03-11T03:12:22.863Z,99.99
2023-03-11T03:13:23.072Z,99.99
2023-03-11T03:14:23.279Z,99.99
2023-03-11T03:15:23.478Z,99.99
2023-03-11T03:16:23.714Z,99.99
2023-03-11T03:17:23.858Z,99.99
2023-03-11T03:18:24.069Z,99.99
2023-03-11T03:19:24.277Z,99.99
2023-03-11T03:20:24.480Z,99.99
2023-03-11T03:21:24.691Z,99.99
2023-03-11T03:22:24.892Z,99.99
2023-03-11T03:23:25.115Z,99.99
2023-03-11T03:24:25.322Z,99.99
2023-03-11T03:25:25.533Z,99.99
2023-03-11T03:26:25.778Z,99.99
2023-03-11T03:27:25.908Z,99.99
2023-03-11T03:28:26.132Z,99.99
2023-03-11T03:29:26.336Z,99.99
2023-03-11T03:30:26.539Z,99.99
2023-03-11T03:31:26.778Z,99.99
2023-03-11T03:32:27.102Z,99.99
2023-03-11T03:33:34.202Z,99.99
2023-03-11T03:34:27.353Z,99.99
2023-03-11T03:35:27.556Z,99.99
2023-03-11T03:36:27.797Z,99.99
2023-03-11T03:37:27.993Z,99.99
2023-03-11T03:38:28.217Z,99.99
2023-03-11T03:39:30.584Z,99.99
2023-03-11T03:40:28.614Z,99.99
2023-03-11T03:41:28.847Z,99.99
2023-03-11T03:42:29.026Z,99.99
2023-03-11T03:43:29.253Z,99.99
2023-03-11T03:44:29.453Z,99.99
2023-03-11T03:45:29.655Z,99.99
2023-03-11T03:46:29.870Z,99.99
2023-03-11T03:47:30.106Z,99.99
2023-03-11T03:48:30.340Z,99.99
2023-03-11T03:49:30.546Z,99.99
2023-03-11T03:50:30.743Z,99.99
2023-03-11T03:51:30.959Z,99.99
2023-03-11T03:52:31.147Z,99.99
2023-03-11T03:53:31.360Z,99.99
2023-03-11T03:54:31.599Z,99.99
2023-03-11T03:55:31.830Z,99.99
2023-03-11T03:56:32.016Z,99.99
2023-03-11T03:57:32.231Z,99.99
2023-03-11T03:58:32.452Z,99.99
2023-03-11T03:59:32.669Z,99.99
2023-03-11T04:00:32.864Z,99.99
2023-03-11T04:01:33.081Z,99.99
2023-03-11T04:02:33.336Z,99.99
2023-03-11T04:03:33.593Z,99.99
2023-03-11T04:04:33.776Z,99.99
2023-03-11T04:05:33.984Z,99.99
2023-03-11T04:06:34.180Z,99.99
2023-03-11T04:07:34.379Z,99.99
2023-03-11T04:08:34.610Z,99.99
2023-03-11T04:09:34.836Z,99.99
2023-03-11T04:10:35.038Z,99.99
2023-03-11T04:11:35.239Z,99.99
2023-03-11T04:12:35.443Z,99.99
2023-03-11T04:13:35.672Z,99.99
2023-03-11T04:14:35.853Z,99.99
2023-03-11T04:15:36.068Z,99.99
2023-03-11T04:16:36.365Z,99.99
2023-03-11T04:17:36.424Z,99.99
2023-03-11T04:18:36.668Z,99.99
2023-03-11T04:19:36.871Z,99.99
2023-03-11T04:20:37.090Z,99.99
2023-03-11T04:21:37.306Z,99.99
2023-03-11T04:22:37.512Z,99.99
2023-03-11T04:23:37.744Z,99.99
2023-03-11T04:24:37.949Z,99.99
2023-03-11T04:25:38.155Z,99.99
2023-03-11T04:26:38.359Z,99.99
2023-03-11T04:27:38.576Z,99.99
2023-03-11T04:28:38.790Z,99.99
2023-03-11T04:29:38.984Z,99.99
2023-03-11T04:30:39.244Z,99.99
2023-03-11T04:31:39.452Z,99.99
2023-03-11T04:32:39.748Z,99.99
2023-03-11T04:33:39.883Z,99.99
2023-03-11T04:34:40.113Z,99.99
2023-03-11T04:35:40.381Z,99.99
2023-03-11T04:36:40.584Z,99.99
2023-03-11T04:37:40.794Z,99.99
2023-03-11T04:38:41.019Z,99.99
2023-03-11T04:39:41.221Z,99.99
2023-03-11T04:40:41.429Z,99.99
2023-03-11T04:41:41.627Z,99.99
2023-03-11T04:42:41.860Z,99.99
2023-03-11T04:43:42.106Z,99.99
2023-03-11T04:44:42.282Z,99.99
2023-03-11T04:45:42.490Z,99.99
2023-03-11T04:46:42.672Z,99.99
2023-03-11T04:47:42.882Z,99.99
2023-03-11T04:48:43.097Z,99.99
2023-03-11T04:49:43.281Z,99.99
2023-03-11T04:50:43.479Z,99.99
2023-03-11T04:51:43.667Z,99.99
2023-03-11T04:52:43.870Z,99.99
2023-03-11T04:53:44.071Z,99.99
2023-03-11T04:54:44.269Z,99.99
2023-03-11T04:55:44.463Z,99.99
2023-03-11T04:56:44.658Z,99.99
2023-03-11T04:57:44.857Z,99.99
2023-03-11T04:58:45.067Z,99.99
2023-03-11T04:59:45.247Z,99.99
2023-03-11T05:00:45.468Z,99.99
2023-03-11T05:01:45.737Z,99.99
2023-03-11T05:02:45.958Z,99.99
2023-03-11T05:03:46.200Z,99.99
2023-03-11T05:04:46.480Z,99.99
2023-03-11T05:05:46.677Z,99.99
2023-03-11T05:06:46.929Z,99.99
2023-03-11T05:07:47.164Z,99.99
2023-03-11T05:08:47.399Z,99.99
2023-03-11T05:09:47.659Z,99.99
2023-03-11T05:10:47.908Z,99.99
2023-03-11T05:11:48.135Z,99.99
2023-03-11T05:12:48.413Z,99.99
2023-03-11T05:13:48.565Z,99.99
2023-03-11T05:14:48.811Z,99.99
2023-03-11T05:15:49.016Z,99.99
2023-03-11T05:16:49.233Z,99.99
2023-03-11T05:17:49.437Z,99.99
2023-03-11T05:18:49.674Z,99.99
2023-03-11T05:19:49.882Z,99.99
2023-03-11T05:20:50.105Z,99.99
2023-03-11T05:21:50.327Z,99.99
2023-03-11T05:22:50.552Z,99.99
2023-03-11T05:23:50.780Z,99.99
2023-03-11T05:24:51.000Z,99.99
2023-03-11T05:25:51.223Z,99.99
2023-03-11T05:26:51.440Z,99.99
2023-03-11T05:27:51.642Z,99.99
2023-03-11T05:28:51.875Z,99.99
2023-03-11T05:29:52.077Z,99.99
2023-03-11T05:30:52.307Z,99.99
2023-03-11T05:31:52.552Z,99.99
2023-03-11T05:32:52.890Z,99.99
2023-03-11T05:33:52.930Z,99.99
2023-03-11T05:34:53.175Z,99.99
2023-03-11T05:35:53.436Z,99.99
2023-03-11T05:36:53.632Z,99.99
2023-03-11T05:37:53.842Z,99.99
2023-03-11T05:38:54.079Z,99.99
2023-03-11T05:39:54.282Z,99.99
2023-03-11T05:40:54.500Z,99.99
2023-03-11T05:41:54.699Z,99.99
2023-03-11T05:42:54.919Z,99.99
2023-03-11T05:43:55.125Z,99.99
2023-03-11T05:44:55.360Z,99.99
2023-03-11T05:45:55.575Z,99.99
2023-03-11T05:46:55.916Z,99.99
2023-03-11T05:47:55.990Z,99.99
2023-03-11T05:48:56.217Z,99.99
2023-03-11T05:49:56.422Z,99.99
2023-03-11T05:50:56.628Z,99.99
2023-03-11T05:51:58.677Z,99.99
2023-03-11T05:52:57.094Z,99.99
2023-03-11T05:53:57.325Z,99.99
2023-03-11T05:54:57.525Z,99.99
2023-03-11T05:55:57.750Z,99.99
2023-03-11T05:56:57.971Z,99.99
2023-03-11T05:57:58.248Z,99.99
2023-03-11T05:58:58.366Z,99.99
2023-03-11T05:59:58.565Z,99.99
2023-03-11T06:00:58.774Z,99.99
2023-03-11T06:01:58.974Z,99.99
2023-03-11T06:02:59.179Z,99.99
2023-03-11T06:03:59.495Z,99.99
2023-03-11T06:04:59.715Z,99.99
2023-03-11T06:05:59.806Z,99.99
2023-03-11T06:07:00.032Z,99.99
2023-03-11T06:08:00.208Z,99.99
2023-03-11T06:09:00.428Z,99.99
2023-03-11T06:10:00.628Z,99.99
2023-03-11T06:11:00.836Z,99.99
2023-03-11T06:12:01.089Z,99.99
2023-03-11T06:13:01.303Z,99.99
2023-03-11T06:14:01.509Z,99.99
2023-03-11T06:15:01.716Z,99.99
2023-03-11T06:16:01.948Z,99.99
2023-03-11T06:17:02.134Z,99.99
2023-03-11T06:18:02.340Z,99.99
2023-03-11T06:19:02.643Z,99.99
2023-03-11T06:20:02.701Z,99.99
2023-03-11T06:21:02.906Z,99.99
2023-03-11T06:22:04.081Z,99.99
2023-03-11T06:23:03.291Z,99.99
2023-03-11T06:24:03.548Z,99.99
2023-03-11T06:25:03.729Z,99.99
2023-03-11T06:26:03.929Z,99.99
2023-03-11T06:27:04.143Z,99.99
2023-03-11T06:28:04.351Z,99.99
2023-03-11T06:29:04.577Z,99.99
2023-03-11T06:30:04.801Z,99.99
2023-03-11T06:31:05.009Z,99.99
2023-03-11T06:32:05.221Z,99.99
2023-03-11T06:33:05.440Z,99.99
2023-03-11T06:34:05.646Z,99.99
2023-03-11T06:35:05.874Z,99.99
2023-03-11T06:36:06.165Z,99.99
2023-03-11T06:37:06.281Z,99.99
2023-03-11T06:38:06.486Z,99.99
2023-03-11T06:39:06.704Z,99.99
2023-03-11T06:40:06.912Z,99.99
2023-03-11T06:41:07.125Z,99.99
2023-03-11T06:42:07.335Z,99.99
2023-03-11T06:43:07.532Z,99.99
2023-03-11T06:44:07.744Z,99.99
2023-03-11T06:45:07.954Z,99.99
2023-03-11T06:46:08.225Z,99.99
2023-03-11T06:47:08.366Z,99.99
2023-03-11T06:48:08.556Z,99.99
2023-03-11T06:49:08.789Z,99.99
2023-03-11T06:50:08.982Z,99.99
2023-03-11T06:51:09.199Z,99.99
2023-03-11T06:52:09.397Z,99.99
2023-03-11T06:53:09.605Z,99.99
2023-03-11T06:54:09.762Z,99.99
2023-03-11T06:55:09.972Z,99.99
2023-03-11T06:56:10.159Z,99.99
2023-03-11T06:57:10.375Z,99.99
2023-03-11T06:58:10.589Z,99.99
2023-03-11T06:59:10.831Z,99.99
2023-03-11T07:00:11.036Z,99.99
2023-03-11T07:01:11.245Z,99.99
2023-03-11T07:02:11.444Z,99.99
2023-03-11T07:03:11.653Z,99.99
2023-03-11T07:04:12.003Z,99.99
2023-03-11T07:05:12.070Z,99.99
2023-03-11T07:06:12.268Z,99.99
2023-03-11T07:07:12.477Z,99.99
2023-03-11T07:08:12.690Z,99.99
2023-03-11T07:09:12.934Z,99.99
2023-03-11T07:10:13.146Z,99.99
2023-03-11T07:11:13.340Z,99.99
2023-03-11T07:12:13.535Z,99.99
2023-03-11T07:13:14.124Z,99.99
2023-03-11T07:14:14.321Z,99.99
2023-03-11T07:15:14.273Z,99.99
2023-03-11T07:16:14.394Z,99.99
2023-03-11T07:17:14.599Z,99.99
2023-03-11T07:18:14.790Z,99.99
2023-03-11T07:19:15.002Z,99.99
2023-03-11T07:20:15.210Z,99.99
2023-03-11T07:21:15.418Z,99.99
2023-03-11T07:22:15.621Z,99.99
2023-03-11T07:23:15.831Z,99.99
2023-03-11T07:24:16.325Z,99.99
2023-03-11T07:25:16.421Z,99.99
2023-03-11T07:26:16.592Z,99.99
2023-03-11T07:27:16.584Z,99.99
2023-03-11T07:28:16.747Z,99.99
2023-03-11T07:29:17.259Z,99.99
2023-03-11T07:30:17.117Z,99.99
2023-03-11T07:31:17.361Z,99.96
2023-03-11T07:32:18.006Z,99.85
2023-03-11T07:33:17.788Z,99.91
2023-03-11T07:34:18.009Z,99.66
2023-03-11T07:35:18.486Z,98.83
2023-03-11T07:36:18.644Z,98.25
2023-03-11T07:37:18.662Z,98.41
2023-03-11T07:38:18.863Z,98.52
2023-03-11T07:39:19.096Z,97.31
2023-03-11T07:40:19.288Z,97.62
2023-03-11T07:41:19.497Z,97.41
2023-03-11T07:42:19.686Z,97.72
2023-03-11T07:43:19.888Z,98.14
2023-03-11T07:44:20.426Z,98.25
2023-03-11T07:45:20.270Z,98.14
2023-03-11T07:46:20.545Z,98.46
2023-03-11T07:47:20.845Z,98.46
2023-03-11T07:48:20.818Z,98.35
2023-03-11T07:49:21.024Z,98.25
2023-03-11T07:50:21.232Z,97.62
2023-03-11T07:51:21.428Z,97.72
2023-03-11T07:52:21.610Z,97.78
2023-03-11T07:53:21.800Z,97.58
2023-03-11T07:54:21.997Z,97.58
2023-03-11T07:55:22.207Z,97.58
2023-03-11T07:56:22.386Z,97.06
2023-03-11T07:57:22.576Z,97.37
2023-03-11T07:58:22.756Z,96.95
2023-03-11T07:59:22.991Z,96.69
2023-03-11T08:00:23.166Z,97.00
2023-03-11T08:01:23.428Z,97.20
2023-03-11T08:02:23.541Z,97.20
2023-03-11T08:03:23.740Z,97.27
2023-03-11T08:04:23.923Z,97.07
2023-03-11T08:05:24.104Z,96.03
2023-03-11T08:06:24.304Z,95.76
2023-03-11T08:07:24.488Z,94.62
2023-03-11T08:08:24.679Z,95.03
2023-03-11T08:09:24.898Z,95.25
2023-03-11T08:10:25.067Z,94.78
2023-03-11T08:11:25.272Z,93.80
2023-03-11T08:12:25.428Z,93.97
2023-03-11T08:13:25.611Z,92.68
2023-03-11T08:14:25.803Z,92.61
2023-03-11T08:15:26.008Z,92.76
2023-03-11T08:16:26.166Z,93.49
2023-03-11T08:17:26.312Z,93.91
2023-03-11T08:18:26.478Z,94.01
2023-03-11T08:19:26.648Z,94.22
2023-03-11T08:20:26.823Z,94.53
2023-03-11T08:21:26.963Z,93.80
2023-03-11T08:22:27.115Z,93.49
2023-03-11T08:23:27.251Z,93.23
2023-03-11T08:24:27.390Z,93.74
2023-03-11T08:25:27.535Z,93.95
2023-03-11T08:26:27.696Z,93.91
2023-03-11T08:27:27.855Z,91.91
2023-03-11T08:28:27.988Z,89.73
2023-03-11T08:29:28.273Z,91.31
2023-03-11T08:30:28.320Z,88.26
2023-03-11T08:31:28.550Z,88.21
2023-03-11T08:32:28.659Z,88.34
2023-03-11T08:33:28.755Z,85.28
2023-03-11T08:34:28.942Z,84.63
2023-03-11T08:35:29.173Z,82.53
2023-03-11T08:36:29.301Z,84.39
2023-03-11T08:37:29.510Z,83.73
2023-03-11T08:38:29.703Z,82.60
2023-03-11T08:39:29.888Z,83.64
2023-03-11T08:40:30.054Z,84.44
2023-03-11T08:41:30.230Z,86.80
2023-03-11T08:42:30.393Z,87.82
2023-03-11T08:43:30.563Z,89.06
2023-03-11T08:44:30.747Z,90.04
2023-03-11T08:45:30.906Z,90.08
2023-03-11T08:46:31.149Z,91.22
2023-03-11T08:47:31.169Z,91.60
2023-03-11T08:48:31.359Z,91.97
2023-03-11T08:49:31.546Z,90.45
2023-03-11T08:50:41.232Z,90.50
2023-03-11T08:51:32.832Z,90.91
2023-03-11T08:52:32.023Z,91.43
2023-03-11T08:53:32.211Z,91.33
2023-03-11T08:54:32.420Z,91.85
2023-03-11T08:55:32.590Z,91.22
2023-03-11T08:56:32.785Z,91.53
2023-03-11T08:57:32.975Z,92.68
2023-03-11T08:58:33.163Z,91.74
2023-03-11T08:59:33.383Z,91.78
2023-03-11T09:00:33.573Z,92.10
2023-03-11T09:01:33.800Z,91.89
2023-03-11T09:02:34.013Z,91.47
2023-03-11T09:03:34.198Z,90.64
2023-03-11T09:04:34.416Z,90.85
2023-03-11T09:05:34.660Z,90.89
2023-03-11T09:06:34.856Z,92.30
2023-03-11T09:07:35.081Z,92.41
2023-03-11T09:08:35.205Z,92.16
2023-03-11T09:09:35.501Z,92.05
2023-03-11T09:10:35.603Z,91.43
2023-03-11T09:11:35.930Z,90.23
2023-03-11T09:12:36.048Z,90.37
2023-03-11T09:13:36.165Z,91.41
2023-03-11T09:14:37.597Z,91.72
2023-03-11T09:15:36.484Z,92.55
2023-03-11T09:16:36.751Z,92.66
2023-03-11T09:17:36.843Z,91.62
2023-03-11T09:18:37.129Z,92.41
2023-03-11T09:19:37.277Z,92.41
2023-03-11T09:20:37.435Z,92.72
2023-03-11T09:21:37.560Z,92.57
2023-03-11T09:22:37.770Z,92.11
2023-03-11T09:23:37.987Z,91.91
2023-03-11T09:24:38.774Z,91.03
2023-03-11T09:25:38.440Z,91.03
2023-03-11T09:26:38.696Z,90.58
2023-03-11T09:27:38.783Z,89.56
2023-03-11T09:28:39.003Z,87.59
2023-03-11T09:29:39.306Z,86.66
2023-03-11T09:30:39.564Z,87.18
2023-03-11T09:31:41.136Z,86.91
2023-03-11T09:32:39.837Z,87.53
2023-03-11T09:34:37.777Z,88.92
2023-03-11T09:35:38.052Z,89.86
2023-03-11T09:36:38.142Z,88.75
2023-03-11T09:37:38.350Z,89.31
2023-03-11T09:38:38.447Z,89.87
2023-03-11T09:39:38.596Z,90.70
2023-03-11T09:40:38.709Z,90.23
2023-03-11T09:41:55.225Z,90.33
2023-03-11T09:42:39.987Z,91.06
2023-03-11T09:43:39.126Z,91.41
2023-03-11T09:44:39.273Z,91.00
2023-03-11T09:45:39.395Z,91.62
2023-03-11T09:46:39.551Z,92.35
2023-03-11T09:47:39.671Z,92.86
2023-03-11T09:48:39.799Z,92.55
2023-03-11T09:49:39.922Z,92.76
2023-03-11T09:50:40.069Z,92.86
2023-03-11T09:51:40.187Z,93.39
2023-03-11T09:52:40.305Z,93.91
2023-03-11T09:53:40.450Z,93.91
2023-03-11T09:54:40.611Z,93.60
2023-03-11T09:55:40.766Z,93.39
2023-03-11T09:56:42.883Z,93.33
2023-03-11T09:57:41.076Z,93.95
2023-03-11T09:58:41.225Z,94.06
2023-03-11T09:59:41.371Z,94.47
2023-03-11T10:00:41.497Z,93.95
2023-03-11T10:01:41.688Z,94.47
2023-03-11T10:02:41.910Z,94.06
2023-03-11T10:03:41.955Z,93.79
2023-03-11T10:04:42.105Z,94.51
2023-03-11T10:05:42.338Z,94.51
2023-03-11T10:06:42.450Z,95.25
2023-03-11T10:07:42.612Z,96.08
2023-03-11T10:08:42.822Z,96.08
2023-03-11T10:09:42.983Z,97.01
2023-03-11T10:10:43.122Z,97.12
2023-03-11T10:11:43.281Z,97.12
2023-03-11T10:12:43.438Z,97.33
2023-03-11T10:13:43.583Z,97.01
2023-03-11T10:14:43.734Z,96.80
2023-03-11T10:15:43.899Z,96.49
2023-03-11T10:16:44.133Z,96.59
2023-03-11T10:17:44.362Z,96.70
2023-03-11T10:18:44.414Z,96.59
2023-03-11T10:19:44.574Z,96.39
2023-03-11T10:20:44.742Z,96.59
2023-03-11T10:21:44.924Z,96.59
2023-03-11T10:22:45.089Z,96.14
2023-03-11T10:23:45.270Z,95.99
2023-03-11T10:24:45.440Z,96.09
2023-03-11T10:25:45.642Z,95.47
2023-03-11T10:26:45.716Z,95.36
2023-03-11T10:27:45.877Z,94.57
2023-03-11T10:28:46.024Z,95.36
2023-03-11T10:29:46.187Z,95.36
2023-03-11T10:30:46.366Z,95.42
2023-03-11T10:31:46.674Z,94.59
2023-03-11T10:32:46.774Z,94.65
2023-03-11T10:33:47.943Z,94.40
2023-03-11T10:34:46.970Z,93.84
2023-03-11T10:35:47.156Z,92.18
2023-03-11T10:36:47.304Z,90.72
2023-03-11T10:37:50.015Z,90.77
2023-03-11T10:38:47.578Z,91.14
2023-03-11T10:39:47.791Z,91.24
2023-03-11T10:40:47.890Z,91.66
2023-03-11T10:41:48.105Z,91.72
2023-03-11T10:42:48.180Z,92.14
2023-03-11T10:43:48.384Z,90.79
2023-03-11T10:44:48.568Z,90.79
2023-03-11T10:45:48.817Z,90.37
2023-03-11T10:46:48.887Z,90.37
2023-03-11T10:47:49.098Z,89.86
2023-03-11T10:48:49.268Z,89.34
2023-03-11T10:49:49.463Z,90.37
2023-03-11T10:50:49.721Z,89.86
2023-03-11T10:51:49.770Z,90.10
2023-03-11T10:52:49.959Z,90.52
2023-03-11T10:53:50.155Z,91.03
2023-03-11T10:54:50.260Z,90.79
2023-03-11T10:55:50.360Z,89.65
2023-03-11T10:56:50.531Z,89.89
2023-03-11T10:57:50.739Z,89.37
2023-03-11T10:58:50.938Z,89.73
2023-03-11T10:59:51.097Z,90.35
2023-03-11T11:00:51.303Z,90.04
2023-03-11T11:01:51.486Z,90.35
2023-03-11T11:02:51.671Z,90.50
2023-03-11T11:03:51.978Z,91.12
2023-03-11T11:04:51.963Z,91.85
2023-03-11T11:05:52.140Z,91.85
2023-03-11T11:06:52.236Z,92.16
2023-03-11T11:07:52.519Z,92.32
2023-03-11T11:08:52.595Z,92.01
2023-03-11T11:09:52.817Z,90.39
2023-03-11T11:10:52.948Z,90.19
2023-03-11T11:11:53.035Z,91.02
2023-03-11T11:12:53.237Z,90.91
2023-03-11T11:13:53.452Z,91.22
2023-03-11T11:14:53.641Z,90.45
2023-03-11T11:15:53.849Z,90.08
2023-03-11T11:16:54.101Z,90.29
2023-03-11T11:17:54.212Z,89.77
2023-03-11T11:18:54.322Z,89.27
2023-03-11T11:19:54.547Z,88.51
2023-03-11T11:20:54.638Z,87.28
2023-03-11T11:21:54.852Z,86.33
2023-03-11T11:22:55.044Z,84.68
2023-03-11T11:23:55.244Z,84.30
2023-03-11T11:24:55.558Z,84.16
2023-03-11T11:25:55.661Z,84.37
2023-03-11T11:26:55.706Z,84.41
2023-03-11T11:27:55.861Z,83.41
2023-03-11T11:28:56.030Z,84.59
2023-03-11T11:29:56.193Z,84.07
2023-03-11T11:30:56.454Z,84.11
2023-03-11T11:31:56.490Z,85.29
2023-03-11T11:32:56.715Z,86.02
2023-03-11T11:33:56.837Z,86.68
2023-03-11T11:34:57.010Z,86.26
2023-03-11T11:35:57.244Z,88.13
2023-03-11T11:36:57.334Z,88.40
2023-03-11T11:37:57.554Z,88.61
2023-03-11T11:38:57.622Z,86.88
2023-03-11T11:39:57.800Z,86.68
2023-03-11T11:40:57.998Z,87.82
2023-03-11T11:41:58.062Z,87.26
2023-03-11T11:42:58.258Z,86.25
2023-03-11T11:43:58.350Z,85.65
2023-03-11T11:44:58.547Z,84.27
2023-03-11T11:45:58.779Z,82.74
2023-03-11T11:46:58.848Z,80.80
2023-03-11T11:47:58.994Z,79.69
2023-03-11T11:48:59.241Z,77.35
2023-03-11T11:49:59.263Z,78.18
2023-03-11T11:50:59.414Z,77.80
2023-03-11T11:51:59.589Z,76.15
2023-03-11T11:52:59.691Z,75.32
2023-03-11T11:53:59.801Z,74.22
2023-03-11T11:54:59.924Z,74.74
2023-03-11T11:56:00.041Z,76.73
2023-03-11T11:57:00.195Z,74.05
2023-03-11T11:58:00.273Z,73.09
2023-03-11T11:59:00.390Z,74.74
2023-03-11T12:00:00.499Z,76.98
2023-03-11T12:01:00.602Z,77.39
2023-03-11T12:02:00.700Z,74.98
2023-03-11T12:03:00.825Z,74.12
2023-03-11T12:04:00.986Z,72.85
2023-03-11T12:05:01.007Z,74.91
2023-03-11T12:06:01.155Z,72.88
2023-03-11T12:07:01.250Z,70.66
2023-03-11T12:08:01.380Z,68.05
2023-03-11T12:09:01.433Z,68.84
2023-03-11T12:10:13.019Z,68.08
2023-03-11T12:11:02.660Z,69.01
2023-03-11T12:12:01.633Z,68.57
2023-03-11T12:13:01.722Z,67.44
2023-03-11T12:14:01.790Z,65.67
2023-03-11T12:15:01.870Z,64.07
2023-03-11T12:16:02.010Z,63.49
2023-03-11T12:17:03.860Z,64.26
2023-03-11T12:18:01.977Z,66.48
2023-03-11T12:19:02.037Z,68.46
2023-03-11T12:20:02.092Z,65.86
2023-03-11T12:21:02.170Z,65.16
2023-03-11T12:22:02.221Z,64.47
2023-03-11T12:23:02.298Z,66.14
2023-03-11T12:24:02.357Z,65.89
2023-03-11T12:25:02.436Z,68.55
2023-03-11T12:26:02.612Z,71.37
2023-03-11T12:27:02.573Z,72.40
2023-03-11T12:28:02.714Z,73.43
2023-03-11T12:29:02.786Z,73.26
2023-03-11T12:30:02.927Z,73.29
2023-03-11T12:31:02.961Z,73.12
2023-03-11T12:32:03.025Z,72.50
2023-03-11T12:33:03.121Z,72.30
2023-03-11T12:34:03.278Z,69.62
2023-03-11T12:35:03.285Z,70.40
2023-03-11T12:36:03.445Z,70.64
2023-03-11T12:37:03.540Z,71.78
2023-03-11T12:38:03.646Z,70.82
2023-03-11T12:39:03.737Z,70.37
2023-03-11T12:40:03.834Z,71.09
2023-03-11T12:41:04.006Z,70.04
2023-03-11T12:42:04.075Z,67.54
2023-03-11T12:43:04.187Z,65.89
2023-03-11T12:44:04.276Z,66.16
2023-03-11T12:45:04.368Z,67.29
2023-03-11T12:46:04.492Z,69.24
2023-03-11T12:47:04.586Z,69.04
2023-03-11T12:48:04.687Z,70.20
2023-03-11T12:49:04.798Z,69.34
2023-03-11T12:50:04.894Z,69.30
2023-03-11T12:51:05.010Z,70.71
2023-03-11T12:52:05.114Z,71.98
2023-03-11T12:53:05.217Z,72.85
2023-03-11T12:54:05.313Z,73.46
2023-03-11T12:55:05.432Z,73.74
2023-03-11T12:56:05.556Z,73.22